»·PEaware :: N172TF KLAX-KSNA

N172TF :: KLAX-KSNA

FLIGHT INFORMATION

Flight Status: Arrived
Operator: Privately registered:
United States
More flights under this callsign
Pilot: Trent Frey (15422)
Aircraft: CESSNA 172 SKYHAWK
(C172)
More flights by this aircraft type
Origin: KLAX Los Angeles Intl
United States
Destination: KSNA John Wayne-Orange Co
United States
More flights between these airports :: More routes between these airports
Route: +SLI7 SLI
File this flight plan on PilotEdge
Remarks: I-6 Rating Slant Golf
Altitude:
(Current/Filed)
4,000ft
Speed:
(Current/Filed)
0kts
Departed: 19-Jun-17 05:45 PM
Arrived: 19-Jun-17 06:52 PM
Distance/Time
Traveled:
31nm/1:07
Distance/Time
To Go:
Arrived

Flight Plot

Page will automatically refresh every two minutes.


Map Options




Map Legend


Flown Route
Filed Route
Departure Airport
Arrival Airport
Navaid (VOR, NDB)
Fix

Horizontal Profiles

Position Reports

Time Latitude Longitude Heading Altitude Ground
Speed
19-Jun-17 17:30 33.948252 -118.401071 185 107ft 0kts
19-Jun-17 17:31 33.948252 -118.401071 185 107ft 0kts
19-Jun-17 17:32 33.948252 -118.401071 185 107ft 0kts
19-Jun-17 17:33 33.948252 -118.401071 185 107ft 0kts
19-Jun-17 17:34 33.948252 -118.401071 185 107ft 0kts
19-Jun-17 17:35 33.948252 -118.401071 185 107ft 0kts
19-Jun-17 17:36 33.948252 -118.401071 185 107ft 0kts
19-Jun-17 17:37 33.948252 -118.401071 185 107ft 0kts
19-Jun-17 17:38 33.948252 -118.401071 185 107ft 0kts
19-Jun-17 17:39 33.948252 -118.401071 185 107ft 0kts
19-Jun-17 17:40 33.948252 -118.401071 185 107ft 0kts
19-Jun-17 17:41 33.948252 -118.401071 185 107ft 0kts
19-Jun-17 17:42 33.948252 -118.401071 185 107ft 0kts
19-Jun-17 17:43 33.948252 -118.401071 185 107ft 0kts
19-Jun-17 17:44 33.948411 -118.400911 36 106ft 0kts
19-Jun-17 17:45 33.949382 -118.401628 334 107ft 0kts
19-Jun-17 17:46 33.949381 -118.401628 335 107ft 0kts
19-Jun-17 17:47 33.950082 -118.402739 262 107ft 26kts
19-Jun-17 17:48 33.947141 -118.429058 261 551ft 104kts
19-Jun-17 17:49 33.930830 -118.457364 205 773ft 120kts
19-Jun-17 17:50 33.903866 -118.474956 213 1441ft 104kts
19-Jun-17 17:51 33.880906 -118.491639 215 2318ft 92kts
19-Jun-17 17:52 33.858983 -118.507427 215 3066ft 98kts
19-Jun-17 17:53 33.838602 -118.522196 215 3495ft 99kts
19-Jun-17 17:54 33.948248 -118.401076 185 107ft 0kts
19-Jun-17 17:55 33.948248 -118.401076 185 107ft 0kts
19-Jun-17 17:56 33.948248 -118.401076 185 107ft 0kts
19-Jun-17 17:57 33.948248 -118.401076 185 107ft 0kts
19-Jun-17 17:58 33.948248 -118.401076 185 107ft 0kts
19-Jun-17 17:59 33.948248 -118.401076 185 107ft 0kts
19-Jun-17 18:00 33.948248 -118.401076 185 107ft 0kts
19-Jun-17 18:01 33.948248 -118.401076 185 107ft 0kts
19-Jun-17 18:02 33.948248 -118.401076 185 107ft 0kts
19-Jun-17 18:03 33.948248 -118.401076 185 107ft 0kts
19-Jun-17 18:04 33.949124 -118.402240 32 107ft 7kts
19-Jun-17 18:05 33.949364 -118.401733 359 107ft 0kts
19-Jun-17 18:06 33.949643 -118.401787 347 107ft 11kts
19-Jun-17 18:07 33.948626 -118.420733 260 414ft 92kts
19-Jun-17 18:08 33.944087 -118.453591 260 994ft 102kts
19-Jun-17 18:09 33.940341 -118.486746 260 1577ft 103kts
19-Jun-17 18:10 33.937141 -118.519598 259 2326ft 95kts
19-Jun-17 18:11 33.934154 -118.550839 260 3117ft 93kts
19-Jun-17 18:12 33.930501 -118.588208 260 2991ft 112kts
19-Jun-17 18:13 33.909224 -118.588394 137 2995ft 114kts
19-Jun-17 18:14 33.886123 -118.561879 143 3066ft 110kts
19-Jun-17 18:15 33.865431 -118.539503 144 3870ft 94kts
19-Jun-17 18:16 33.842135 -118.515224 147 4010ft 120kts
19-Jun-17 18:17 33.816176 -118.490346 148 4007ft 119kts
19-Jun-17 18:18 33.790046 -118.465461 148 4004ft 120kts
19-Jun-17 18:19 33.763608 -118.440245 148 4001ft 122kts
19-Jun-17 18:20 33.736862 -118.414850 148 4004ft 123kts
19-Jun-17 18:21 33.710039 -118.389451 148 4007ft 123kts
19-Jun-17 18:22 33.687414 -118.360627 90 4023ft 130kts
19-Jun-17 18:23 33.699933 -118.320118 65 4019ft 130kts
19-Jun-17 18:24 33.713887 -118.279582 67 4006ft 131kts
19-Jun-17 18:25 33.727609 -118.239407 69 4005ft 130kts
19-Jun-17 18:26 33.742018 -118.199785 68 4003ft 128kts
19-Jun-17 18:27 33.752556 -118.159809 78 4002ft 124kts
19-Jun-17 18:28 33.763002 -118.120784 75 4001ft 121kts
19-Jun-17 18:29 33.773898 -118.083162 74 3999ft 118kts
19-Jun-17 18:30 33.786822 -118.046862 65 4000ft 119kts
19-Jun-17 18:31 33.808952 -118.017237 63 4002ft 120kts
19-Jun-17 18:32 33.825877 -117.982817 65 4003ft 121kts
19-Jun-17 18:33 33.839362 -117.947156 70 4004ft 121kts
19-Jun-17 18:34 33.852195 -117.911073 70 4005ft 121kts
19-Jun-17 18:35 33.864667 -117.875803 70 4005ft 122kts
19-Jun-17 18:36 33.877683 -117.838950 70 4004ft 122kts
19-Jun-17 18:37 33.890561 -117.802430 69 4001ft 121kts
19-Jun-17 18:38 33.903609 -117.765387 69 3998ft 122kts
19-Jun-17 18:39 33.916930 -117.727541 68 3996ft 124kts
19-Jun-17 18:40 33.942144 -117.702817 17 3723ft 127kts
19-Jun-17 18:41 33.973699 -117.690029 327 3481ft 111kts
19-Jun-17 18:42 33.958922 -117.713145 212 3508ft 104kts
19-Jun-17 18:43 33.933037 -117.728637 173 3495ft 110kts
19-Jun-17 18:44 33.906362 -117.723695 208 3494ft 106kts
19-Jun-17 18:45 33.880561 -117.741032 210 3494ft 106kts
19-Jun-17 18:46 33.853898 -117.754201 209 3561ft 103kts
19-Jun-17 18:47 33.829056 -117.771190 209 3530ft 108kts
19-Jun-17 18:48 33.804146 -117.788740 207 2801ft 99kts
19-Jun-17 18:49 33.784110 -117.800628 206 2489ft 79kts
19-Jun-17 18:50 33.764724 -117.812288 208 1975ft 81kts
19-Jun-17 18:51 33.744749 -117.824764 208 1489ft 83kts
19-Jun-17 18:52 33.724735 -117.837121 199 1034ft 82kts
19-Jun-17 18:53 33.706009 -117.849599 206 786ft 74kts
19-Jun-17 18:53 33.690191 -117.859718 209 297ft 71kts
19-Jun-17 18:54 33.676483 -117.868301 208 60ft 15kts
19-Jun-17 18:55 33.675934 -117.869779 274 60ft 12kts
19-Jun-17 18:56 33.673690 -117.872441 146 60ft 0kts
19-Jun-17 18:57 33.673648 -117.872358 117 60ft 0kts

Navigation Log

Ident Type
1. KLAX Airport
2. SLI Navaid
3. KSNA Airport